createdAt,value
2023-07-24T00:01:56.914Z,100549.09
2023-07-24T00:04:23.919Z,100545.69
2023-07-24T00:06:51.004Z,100545.69
2023-07-24T00:09:17.990Z,100551.03
2023-07-24T00:11:45.007Z,100547.63
2023-07-24T00:14:11.936Z,100544.22
2023-07-24T00:16:38.903Z,100539.66
2023-07-24T00:19:05.980Z,100541.44
2023-07-24T00:21:33.273Z,100543.25
2023-07-24T00:24:00.550Z,100542.59
2023-07-24T00:26:27.795Z,100535.28
2023-07-24T00:28:55.148Z,100527.38
2023-07-24T00:31:22.307Z,100537.41
2023-07-24T00:33:49.310Z,100532.06
2023-07-24T00:36:16.301Z,100533.25
2023-07-24T00:38:43.269Z,100537.75
2023-07-24T00:41:10.386Z,100533.25
2023-07-24T00:43:37.404Z,100528.06
2023-07-24T00:46:04.587Z,100524.66
2023-07-24T00:48:31.763Z,100525.75
2023-07-24T00:50:58.846Z,100520.44
2023-07-24T00:53:25.966Z,100522.31
2023-07-24T00:55:53.035Z,100525.97
2023-07-24T00:58:21.163Z,100532.25
2023-07-24T01:00:48.450Z,100526.19
2023-07-24T01:03:15.783Z,100520.88
2023-07-24T01:05:42.857Z,100524.47
2023-07-24T01:08:09.895Z,100517.47
2023-07-24T01:10:36.912Z,100518.44
2023-07-24T01:13:09.112Z,100512.25
2023-07-24T01:15:41.421Z,100506.22
2023-07-24T01:18:10.933Z,100513.47
2023-07-24T01:20:41.489Z,100509.22
2023-07-24T01:23:23.715Z,100513.34
2023-07-24T01:25:57.339Z,100513.56
2023-07-24T01:28:24.656Z,100516.22
2023-07-24T01:30:51.733Z,100517.19
2023-07-24T01:33:19.482Z,100523.47
2023-07-24T01:35:47.966Z,100520.94
2023-07-24T01:38:15.549Z,100517.50
2023-07-24T01:40:42.903Z,100516.56
2023-07-24T01:43:10.446Z,100514.13
2023-07-24T01:45:37.492Z,100510.38
2023-07-24T01:48:07.616Z,100508.81
2023-07-24T01:50:34.650Z,100514.13
2023-07-24T01:53:01.608Z,100513.28
2023-07-24T01:55:28.546Z,100518.59
2023-07-24T01:57:55.615Z,100510.72
2023-07-24T02:00:22.681Z,100509.88
2023-07-24T02:02:49.819Z,100512.44
2023-07-24T02:05:16.922Z,100511.59
2023-07-24T02:07:43.898Z,100510.84
2023-07-24T02:10:11.344Z,100517.97
2023-07-24T02:12:38.333Z,100510.00
2023-07-24T02:15:05.696Z,100503.09
2023-07-24T02:17:32.832Z,100496.94
2023-07-24T02:19:59.838Z,100495.22
2023-07-24T02:22:26.911Z,100490.03
2023-07-24T02:24:53.940Z,100482.06
2023-07-24T02:27:32.857Z,100485.66
2023-07-24T02:29:59.968Z,100482.06
2023-07-24T02:32:27.267Z,100485.66
2023-07-24T02:34:54.520Z,100490.97
2023-07-24T02:37:21.470Z,100485.66
2023-07-24T02:39:48.674Z,100485.78
2023-07-24T02:42:15.679Z,100490.97
2023-07-24T02:44:42.657Z,100493.13
2023-07-24T02:47:09.602Z,100490.34
2023-07-24T02:49:36.664Z,100485.03
2023-07-24T02:52:03.971Z,100493.13
2023-07-24T02:54:30.944Z,100489.53
2023-07-24T02:56:57.948Z,100483.34
2023-07-24T02:59:25.216Z,100487.69
2023-07-24T03:01:52.242Z,100491.41
2023-07-24T03:04:19.450Z,100488.75
2023-07-24T03:06:46.566Z,100495.91
2023-07-24T03:09:13.801Z,100496.72
2023-07-24T03:11:40.846Z,100496.00
2023-07-24T03:14:07.880Z,100496.84
2023-07-24T03:16:34.913Z,100492.41
2023-07-24T03:19:01.966Z,100486.34
2023-07-24T03:21:29.002Z,100492.50
2023-07-24T03:23:55.984Z,100489.97
2023-07-24T03:26:23.049Z,100484.63
2023-07-24T03:28:50.036Z,100488.25
2023-07-24T03:31:17.228Z,100490.19
2023-07-24T03:33:44.255Z,100485.72
2023-07-24T03:36:11.242Z,100491.13
2023-07-24T03:38:38.216Z,100493.78
2023-07-24T03:41:05.224Z,100491.97
2023-07-24T03:43:32.279Z,100498.38
2023-07-24T03:45:59.333Z,100507.19
2023-07-24T03:48:26.303Z,100502.00
2023-07-24T03:51:01.435Z,100503.06
2023-07-24T03:53:28.561Z,100505.75
2023-07-24T03:55:55.849Z,100503.28
2023-07-24T03:58:22.902Z,100494.69
2023-07-24T04:00:50.118Z,100504.47
2023-07-24T04:03:17.711Z,100500.84
2023-07-24T04:05:44.845Z,100502.53
2023-07-24T04:08:11.808Z,100509.56
2023-07-24T04:10:38.830Z,100507.84
2023-07-24T04:13:05.885Z,100508.91
2023-07-24T04:15:32.935Z,100503.59
2023-07-24T04:17:59.980Z,100503.59
2023-07-24T04:20:26.970Z,100505.53
2023-07-24T04:22:54.043Z,100519.03
2023-07-24T04:25:21.723Z,100506.72
2023-07-24T04:27:48.701Z,100505.97
2023-07-24T04:30:15.794Z,100508.75
2023-07-24T04:32:43.044Z,100503.31
2023-07-24T04:35:10.582Z,100515.75
2023-07-24T04:37:37.536Z,100509.59
2023-07-24T04:40:05.266Z,100515.84
2023-07-24T04:42:32.472Z,100519.50
2023-07-24T04:44:59.415Z,100510.66
2023-07-24T04:47:26.533Z,100513.19
2023-07-24T04:49:53.577Z,100510.44
2023-07-24T04:52:20.548Z,100514.69
2023-07-24T04:54:47.675Z,100515.53
2023-07-24T04:59:42.722Z,100507.47
2023-07-24T05:02:11.303Z,100509.16
2023-07-24T05:04:38.386Z,100509.16
2023-07-24T05:07:05.395Z,100512.34
2023-07-24T05:09:32.350Z,100513.06
2023-07-24T05:11:59.362Z,100519.25
2023-07-24T05:14:26.332Z,100515.72
2023-07-24T05:16:53.502Z,100520.63
2023-07-24T05:19:20.676Z,100519.13
2023-07-24T05:21:47.655Z,100525.94
2023-07-24T05:24:14.670Z,100524.94
2023-07-24T05:26:41.677Z,100529.41
2023-07-24T05:29:08.666Z,100524.00
2023-07-24T05:31:37.007Z,100531.84
2023-07-24T05:34:05.137Z,100524.75
2023-07-24T05:36:32.592Z,100523.78
2023-07-24T05:38:59.771Z,100528.13
2023-07-24T05:41:26.940Z,100527.19
2023-07-24T05:43:53.977Z,100523.78
2023-07-24T05:46:21.078Z,100522.06
2023-07-24T05:48:48.338Z,100526.44
2023-07-24T05:51:15.564Z,100522.81
2023-07-24T05:53:43.246Z,100530.56
2023-07-24T05:56:10.409Z,100534.94
2023-07-24T05:58:37.472Z,100530.34
2023-07-24T06:01:04.897Z,100530.34
2023-07-24T06:03:32.763Z,100527.56
2023-07-24T06:05:59.891Z,100529.91
2023-07-24T06:08:27.016Z,100524.59
2023-07-24T06:10:54.331Z,100519.16
2023-07-24T06:13:21.898Z,100522.66
2023-07-24T06:15:50.202Z,100525.19
2023-07-24T06:18:17.622Z,100525.97
2023-07-24T06:20:44.593Z,100525.84
2023-07-24T06:23:11.727Z,100524.75
2023-07-24T06:25:38.872Z,100530.00
2023-07-24T06:28:06.217Z,100523.91
2023-07-24T06:30:33.710Z,100525.28
2023-07-24T06:33:00.950Z,100515.94
2023-07-24T06:35:28.143Z,100517.75
2023-07-24T06:37:55.239Z,100524.97
2023-07-24T06:40:22.326Z,100521.50
2023-07-24T06:42:49.521Z,100520.97
2023-07-24T06:45:16.644Z,100525.25
2023-07-24T06:47:43.696Z,100504.84
2023-07-24T06:50:11.007Z,100520.66
2023-07-24T06:52:38.152Z,100521.66
2023-07-24T06:55:05.850Z,100519.72
2023-07-24T06:57:32.949Z,100507.63
2023-07-24T07:00:00.128Z,100513.44
2023-07-24T07:02:27.497Z,100515.88
2023-07-24T07:04:55.036Z,100503.31
2023-07-24T07:07:22.193Z,100519.06
2023-07-24T07:09:49.653Z,100518.06
2023-07-24T07:12:17.174Z,100521.81
2023-07-24T07:14:44.453Z,100515.88
2023-07-24T07:17:11.918Z,100519.38
2023-07-24T07:19:39.286Z,100519.28
2023-07-24T07:22:06.891Z,100520.97
2023-07-24T07:24:34.216Z,100521.09
2023-07-24T07:27:01.684Z,100520.22
2023-07-24T07:29:29.316Z,100522.03
2023-07-24T07:31:56.456Z,100516.63
2023-07-24T07:34:24.194Z,100512.03
2023-07-24T07:36:51.281Z,100510.97
2023-07-24T07:39:18.449Z,100511.69
2023-07-24T07:41:45.706Z,100515.84
2023-07-24T07:44:12.954Z,100516.91
2023-07-24T07:46:40.093Z,100513.53
2023-07-24T07:49:07.646Z,100506.28
2023-07-24T07:51:34.784Z,100510.72
2023-07-24T07:54:02.013Z,100504.34
2023-07-24T07:56:30.064Z,100504.34
2023-07-24T07:58:57.553Z,100503.25
2023-07-24T08:01:24.870Z,100507.28
2023-07-24T08:03:52.093Z,100496.44
2023-07-24T08:06:19.587Z,100501.63
2023-07-24T08:08:46.758Z,100495.44
2023-07-24T08:11:13.964Z,100496.94
2023-07-24T08:13:41.133Z,100498.50
2023-07-24T08:16:19.904Z,100500.81
2023-07-24T08:18:49.319Z,100492.50
2023-07-24T08:21:17.135Z,100502.19
2023-07-24T08:23:44.500Z,100509.69
2023-07-24T08:26:12.017Z,100500.16
2023-07-24T08:28:44.605Z,100494.97
2023-07-24T08:31:12.974Z,100496.72
2023-07-24T08:33:43.424Z,100503.44
2023-07-24T08:36:14.311Z,100505.16
2023-07-24T08:38:42.737Z,100498.78
2023-07-24T08:41:15.489Z,100495.75
2023-07-24T08:43:45.223Z,100495.03
2023-07-24T08:46:12.516Z,100485.69
2023-07-24T08:48:41.679Z,100498.19
2023-07-24T08:51:11.488Z,100501.75
2023-07-24T08:53:43.458Z,100486.84
2023-07-24T08:56:13.854Z,100493.22
2023-07-24T08:58:41.383Z,100492.13
2023-07-24T09:01:10.156Z,100490.69
2023-07-24T09:03:37.942Z,100493.09
2023-07-24T09:06:05.674Z,100487.28
2023-07-24T09:08:34.332Z,100496.72
2023-07-24T09:11:03.056Z,100488.59
2023-07-24T09:13:31.433Z,100490.53
2023-07-24T09:16:00.880Z,100488.84
2023-07-24T09:18:28.529Z,100487.97
2023-07-24T09:20:55.977Z,100490.91
2023-07-24T09:23:30.379Z,100493.66
2023-07-24T09:25:57.568Z,100485.81
2023-07-24T09:28:25.111Z,100481.56
2023-07-24T09:30:57.399Z,100482.41
2023-07-24T09:33:35.498Z,100486.75
2023-07-24T09:36:05.382Z,100483.16
2023-07-24T09:38:32.778Z,100484.09
2023-07-24T09:41:04.468Z,100481.31
2023-07-24T09:46:06.235Z,100478.06
2023-07-24T09:51:04.420Z,100473.84
2023-07-24T09:53:46.142Z,100478.06
2023-07-24T09:56:14.726Z,100476.84
2023-07-24T09:58:45.367Z,100479.28
2023-07-24T10:01:12.996Z,100484.00
2023-07-24T10:03:48.636Z,100481.69
2023-07-24T10:06:17.291Z,100484.59
2023-07-24T10:08:45.722Z,100487.47
2023-07-24T10:11:14.282Z,100483.38
2023-07-24T10:13:44.756Z,100490.66
2023-07-24T10:16:12.199Z,100483.34
2023-07-24T10:18:47.086Z,100489.13
2023-07-24T10:21:14.681Z,100489.38
2023-07-24T10:23:49.896Z,100492.28
2023-07-24T10:26:17.504Z,100486.84
2023-07-24T10:28:52.426Z,100491.94
2023-07-24T10:31:30.850Z,100494.94
2023-07-24T10:34:06.373Z,100493.25
2023-07-24T10:36:38.273Z,100491.53
2023-07-24T10:39:21.167Z,100499.41
2023-07-24T10:41:48.660Z,100490.44
2023-07-24T10:44:16.101Z,100487.78
2023-07-24T10:46:46.306Z,100490.34
2023-07-24T10:49:13.564Z,100484.91
2023-07-24T10:51:40.964Z,100487.69
2023-07-24T10:54:08.185Z,100488.53
2023-07-24T10:56:38.504Z,100482.38
2023-07-24T10:59:06.669Z,100481.28
2023-07-24T11:01:35.518Z,100480.41
2023-07-24T11:04:04.170Z,100479.56
2023-07-24T11:06:31.439Z,100481.28
2023-07-24T11:09:00.872Z,100482.94
2023-07-24T11:11:37.888Z,100481.06
2023-07-24T11:14:05.948Z,100473.16
2023-07-24T11:16:35.187Z,100473.16
2023-07-24T11:19:03.104Z,100476.44
2023-07-24T11:21:31.667Z,100478.16
2023-07-24T11:23:59.554Z,100471.22
2023-07-24T11:26:27.827Z,100480.69
2023-07-24T11:28:55.808Z,100482.41
2023-07-24T11:31:23.314Z,100476.22
2023-07-24T11:33:52.510Z,100482.25
2023-07-24T11:36:20.570Z,100480.56
2023-07-24T11:38:48.254Z,100483.13
2023-07-24T11:41:18.008Z,100481.41
2023-07-24T11:43:49.639Z,100490.97
2023-07-24T11:46:30.756Z,100490.13
2023-07-24T11:49:00.540Z,100479.84
2023-07-24T11:51:29.532Z,100483.13
2023-07-24T11:54:12.888Z,100483.34
2023-07-24T11:56:40.442Z,100491.34
2023-07-24T11:59:17.059Z,100488.81
2023-07-24T12:01:50.493Z,100480.19
2023-07-24T12:04:18.306Z,100468.69
2023-07-24T12:06:46.042Z,100480.41
2023-07-24T12:09:13.619Z,100473.16
2023-07-24T12:11:46.275Z,100476.41
2023-07-24T12:14:17.440Z,100480.66
2023-07-24T12:16:45.350Z,100470.84
2023-07-24T12:19:12.395Z,100474.00
2023-07-24T12:21:39.652Z,100476.69
2023-07-24T12:24:06.964Z,100466.16
2023-07-24T12:26:34.101Z,100467.25
2023-07-24T12:29:02.023Z,100477.91
2023-07-24T12:31:30.021Z,100476.81
2023-07-24T12:33:57.977Z,100466.97
2023-07-24T12:36:25.294Z,100475.09
2023-07-24T12:38:52.452Z,100469.53
2023-07-24T12:41:19.530Z,100469.38
2023-07-24T12:43:46.889Z,100474.22
2023-07-24T12:46:14.200Z,100463.34
2023-07-24T12:48:41.414Z,100473.66
2023-07-24T12:51:08.635Z,100461.88
2023-07-24T12:53:38.748Z,100466.97
2023-07-24T12:56:13.946Z,100466.13
2023-07-24T12:58:41.147Z,100465.13
2023-07-24T13:01:12.281Z,100462.75
2023-07-24T13:03:39.454Z,100463.50
2023-07-24T13:06:06.525Z,100452.94
2023-07-24T13:08:33.976Z,100459.84
2023-07-24T13:11:01.109Z,100456.97
2023-07-24T13:13:28.765Z,100454.78
2023-07-24T13:15:56.257Z,100457.94
2023-07-24T13:18:28.790Z,100460.00
2023-07-24T13:20:59.304Z,100452.97
2023-07-24T13:23:26.753Z,100444.13
2023-07-24T13:25:55.078Z,100451.78
2023-07-24T13:28:22.458Z,100448.38
2023-07-24T13:30:50.026Z,100449.47
2023-07-24T13:33:17.395Z,100447.03
2023-07-24T13:35:44.538Z,100443.66
2023-07-24T13:38:11.851Z,100437.38
2023-07-24T13:40:39.094Z,100436.28
2023-07-24T13:43:06.636Z,100439.03
2023-07-24T13:45:33.964Z,100448.00
2023-07-24T13:48:01.311Z,100441.94
2023-07-24T13:50:28.429Z,100444.72
2023-07-24T13:52:55.715Z,100442.19
2023-07-24T13:55:23.036Z,100434.09
2023-07-24T13:57:50.106Z,100433.72
2023-07-24T14:00:18.040Z,100435.44
2023-07-24T14:02:45.261Z,100430.81
2023-07-24T14:05:13.432Z,100435.19
2023-07-24T14:07:40.713Z,100436.16
2023-07-24T14:10:08.537Z,100438.09
2023-07-24T14:12:35.777Z,100425.72
2023-07-24T14:15:03.230Z,100430.09
2023-07-24T14:17:30.551Z,100425.63
2023-07-24T14:19:57.786Z,100434.69
2023-07-24T14:22:28.167Z,100433.84
2023-07-24T14:24:55.653Z,100424.16
2023-07-24T14:27:22.794Z,100430.34
2023-07-24T14:29:50.237Z,100427.81
2023-07-24T14:32:17.394Z,100427.81
2023-07-24T14:34:44.684Z,100432.63
2023-07-24T14:37:11.916Z,100423.31
2023-07-24T14:39:38.993Z,100429.47
2023-07-24T14:42:06.479Z,100425.97
2023-07-24T14:44:33.640Z,100420.91
2023-07-24T14:47:00.888Z,100424.78
2023-07-24T14:49:28.277Z,100430.34
2023-07-24T14:51:55.549Z,100419.44
2023-07-24T14:54:22.736Z,100416.56
2023-07-24T14:56:59.193Z,100420.53
2023-07-24T14:59:31.751Z,100425.25
2023-07-24T15:01:59.029Z,100416.31
2023-07-24T15:04:26.171Z,100422.34
2023-07-24T15:06:53.327Z,100415.22
2023-07-24T15:09:20.381Z,100417.41
2023-07-24T15:11:47.617Z,100415.56
2023-07-24T15:14:15.217Z,100408.81
2023-07-24T15:16:42.414Z,100405.91
2023-07-24T15:19:09.503Z,100404.94
2023-07-24T15:21:36.510Z,100404.84
2023-07-24T15:24:03.654Z,100403.13
2023-07-24T15:26:30.951Z,100399.75
2023-07-24T15:28:58.002Z,100404.44
2023-07-24T15:31:25.113Z,100406.41
2023-07-24T15:33:52.196Z,100404.47
2023-07-24T15:36:19.432Z,100407.59
2023-07-24T15:38:46.733Z,100403.38
2023-07-24T15:41:13.823Z,100403.25
2023-07-24T15:43:40.864Z,100399.13
2023-07-24T15:46:08.081Z,100392.09
2023-07-24T15:48:35.294Z,100390.44
2023-07-24T15:51:03.870Z,100390.44
2023-07-24T15:53:32.752Z,100392.59
2023-07-24T15:56:01.306Z,100391.50
2023-07-24T15:58:28.566Z,100395.13
2023-07-24T16:00:56.078Z,100393.31
2023-07-24T16:03:24.221Z,100400.34
2023-07-24T16:05:52.759Z,100388.00
2023-07-24T16:08:19.979Z,100385.34
2023-07-24T16:10:47.629Z,100387.03
2023-07-24T16:13:15.413Z,100379.16
2023-07-24T16:18:12.643Z,100382.53
2023-07-24T16:20:41.217Z,100385.81
2023-07-24T16:23:08.665Z,100382.53
2023-07-24T16:25:35.839Z,100391.63
2023-07-24T16:28:03.308Z,100387.38
2023-07-24T16:30:31.002Z,100396.47
2023-07-24T16:32:58.914Z,100393.34
2023-07-24T16:35:26.147Z,100394.06
2023-07-24T16:37:53.369Z,100392.34
2023-07-24T16:40:21.147Z,100389.69
2023-07-24T16:42:51.360Z,100398.16
2023-07-24T16:47:53.472Z,100395.97
2023-07-24T16:50:20.745Z,100393.06
2023-07-24T16:52:47.870Z,100393.56
2023-07-24T16:55:14.937Z,100395.97
2023-07-24T16:57:42.218Z,100390.16
2023-07-24T17:00:10.590Z,100391.59
2023-07-24T17:02:38.843Z,100395.31
2023-07-24T17:05:06.711Z,100385.63
2023-07-24T17:07:33.937Z,100387.47
2023-07-24T17:10:01.136Z,100390.16
2023-07-24T17:12:28.281Z,100399.03
2023-07-24T17:14:58.724Z,100398.75
2023-07-24T17:17:26.277Z,100392.09
2023-07-24T17:19:53.390Z,100395.72
2023-07-24T17:22:20.822Z,100395.00
2023-07-24T17:24:48.236Z,100403.97
2023-07-24T17:27:15.656Z,100398.91
2023-07-24T17:29:43.031Z,100400.09
2023-07-24T17:32:10.354Z,100407.84
2023-07-24T17:34:37.568Z,100399.13
2023-07-24T17:37:05.009Z,100396.81
2023-07-24T17:39:35.493Z,100402.63
2023-07-24T17:42:02.691Z,100401.81
2023-07-24T17:44:29.849Z,100397.66
2023-07-24T17:46:58.328Z,100396.47
2023-07-24T17:49:25.500Z,100396.22
2023-07-24T17:51:53.322Z,100386.53
2023-07-24T17:54:20.775Z,100392.34
2023-07-24T17:56:48.889Z,100396.94
2023-07-24T17:59:16.589Z,100401.44
2023-07-24T18:01:44.006Z,100394.44
2023-07-24T18:04:11.661Z,100392.81
2023-07-24T18:06:40.295Z,100396.22
2023-07-24T18:09:07.392Z,100390.16
2023-07-24T18:11:34.570Z,100392.09
2023-07-24T18:14:02.691Z,100394.78
2023-07-24T18:16:30.953Z,100393.91
2023-07-24T18:18:58.880Z,100395.75
2023-07-24T18:21:26.199Z,100394.06
2023-07-24T18:23:56.274Z,100398.53
2023-07-24T18:26:23.517Z,100392.09
2023-07-24T18:28:51.468Z,100402.28
2023-07-24T18:31:23.455Z,100394.78
2023-07-24T18:33:52.574Z,100402.53
2023-07-24T18:36:20.895Z,100405.91
2023-07-24T18:38:48.426Z,100400.09
2023-07-24T18:41:16.185Z,100404.22
2023-07-24T18:43:43.634Z,100404.47
2023-07-24T18:46:10.952Z,100406.88
2023-07-24T18:48:38.517Z,100408.81
2023-07-24T18:51:07.088Z,100409.19
2023-07-24T18:53:34.330Z,100407.63
2023-07-24T18:56:02.366Z,100404.47
2023-07-24T18:58:29.708Z,100406.03
2023-07-24T19:00:57.370Z,100408.81
2023-07-24T19:03:24.725Z,100403.13
2023-07-24T19:05:52.177Z,100396.94
2023-07-24T19:08:19.398Z,100407.38
2023-07-24T19:10:50.118Z,100411.63
2023-07-24T19:13:18.809Z,100410.25
2023-07-24T19:15:48.966Z,100406.03
2023-07-24T19:18:18.975Z,100407.72
2023-07-24T19:20:46.392Z,100414.78
2023-07-24T19:23:14.068Z,100420.81
2023-07-24T19:25:45.289Z,100419.00
2023-07-24T19:28:12.839Z,100409.78
2023-07-24T19:30:42.544Z,100407.72
2023-07-24T19:33:11.546Z,100410.38
2023-07-24T19:35:40.604Z,100413.13
2023-07-24T19:38:10.550Z,100422.13
2023-07-24T19:40:38.431Z,100417.75
2023-07-24T19:43:06.602Z,100419.69
2023-07-24T19:45:41.044Z,100426.84
2023-07-24T19:48:08.676Z,100428.66
2023-07-24T19:50:40.860Z,100437.38
2023-07-24T19:53:08.465Z,100430.94
2023-07-24T19:55:40.351Z,100432.50
2023-07-24T19:58:12.524Z,100431.56
2023-07-24T20:00:54.513Z,100433.13
2023-07-24T20:03:30.113Z,100432.50
2023-07-24T20:06:05.262Z,100424.38
2023-07-24T20:08:37.170Z,100437.97
2023-07-24T20:11:14.115Z,100433.00
2023-07-24T20:13:44.017Z,100430.47
2023-07-24T20:16:13.060Z,100432.28
2023-07-24T20:18:41.065Z,100434.22
2023-07-24T20:21:08.673Z,100430.69
2023-07-24T20:23:36.028Z,100433.50
2023-07-24T20:26:04.268Z,100435.19
2023-07-24T20:28:39.492Z,100438.59
2023-07-24T20:31:08.399Z,100438.59
2023-07-24T20:33:36.340Z,100449.03
2023-07-24T20:36:10.820Z,100446.84
2023-07-24T20:38:41.472Z,100448.81
2023-07-24T20:41:13.869Z,100451.09
2023-07-24T20:43:41.264Z,100450.75
2023-07-24T20:46:12.500Z,100454.13
2023-07-24T20:48:40.000Z,100451.22
2023-07-24T20:51:18.940Z,100450.22
2023-07-24T20:53:47.597Z,100451.31
2023-07-24T20:56:15.297Z,100446.00
2023-07-24T20:58:42.816Z,100448.56
2023-07-24T21:01:11.721Z,100455.09
2023-07-24T21:03:38.902Z,100447.31
2023-07-24T21:06:06.396Z,100450.22
2023-07-24T21:08:33.885Z,100460.56
2023-07-24T21:11:01.925Z,100453.19
2023-07-24T21:13:29.128Z,100453.66
2023-07-24T21:15:56.360Z,100453.88
2023-07-24T21:18:24.092Z,100459.31
2023-07-24T21:20:51.731Z,100457.16
2023-07-24T21:23:19.414Z,100451.09
2023-07-24T21:25:57.323Z,100462.84
2023-07-24T21:28:25.378Z,100453.16
2023-07-24T21:30:53.011Z,100459.56
2023-07-24T21:33:20.289Z,100457.00
2023-07-24T21:35:58.657Z,100457.28
2023-07-24T21:38:26.023Z,100454.84
2023-07-24T21:40:53.277Z,100457.03
2023-07-24T21:43:21.827Z,100462.69
2023-07-24T21:45:49.660Z,100454.84
2023-07-24T21:48:17.313Z,100457.72
2023-07-24T21:50:54.542Z,100466.81
2023-07-24T21:53:24.352Z,100463.41
2023-07-24T21:55:52.205Z,100458.19
2023-07-24T21:58:20.153Z,100459.41
2023-07-24T22:00:47.439Z,100463.88
2023-07-24T22:03:19.083Z,100457.94
2023-07-24T22:05:46.150Z,100463.25
2023-07-24T22:08:17.280Z,100461.59
2023-07-24T22:10:45.210Z,100466.06
2023-07-24T22:13:12.422Z,100461.81
2023-07-24T22:15:39.926Z,100460.25
2023-07-24T22:18:07.421Z,100457.56
2023-07-24T22:20:40.604Z,100465.81
2023-07-24T22:23:08.944Z,100464.22
2023-07-24T22:25:36.504Z,100457.09
2023-07-24T22:28:04.773Z,100456.34
2023-07-24T22:30:32.068Z,100455.50
2023-07-24T22:32:59.684Z,100459.25
2023-07-24T22:35:27.037Z,100461.16
2023-07-24T22:37:54.276Z,100465.66
2023-07-24T22:40:21.325Z,100458.63
2023-07-24T22:42:48.858Z,100457.91
2023-07-24T22:45:16.025Z,100461.53
2023-07-24T22:47:43.165Z,100449.16
2023-07-24T22:50:10.746Z,100456.06
2023-07-24T22:52:38.020Z,100453.66
2023-07-24T22:55:06.270Z,100455.34
2023-07-24T22:57:33.592Z,100454.50
2023-07-24T23:00:00.798Z,100454.75
2023-07-24T23:02:27.942Z,100456.56
2023-07-24T23:04:55.144Z,100455.72
2023-07-24T23:07:22.279Z,100457.50
2023-07-24T23:09:49.384Z,100466.72
2023-07-24T23:12:16.462Z,100465.22
2023-07-24T23:14:43.504Z,100466.19
2023-07-24T23:17:10.558Z,100464.56
2023-07-24T23:19:37.571Z,100459.25
2023-07-24T23:22:04.730Z,100460.09
2023-07-24T23:24:31.872Z,100464.28
2023-07-24T23:29:25.955Z,100459.81
2023-07-24T23:31:56.446Z,100456.72
2023-07-24T23:34:23.575Z,100461.19
2023-07-24T23:36:50.590Z,100464.56
2023-07-24T23:39:17.713Z,100455.88
2023-07-24T23:41:44.825Z,100457.78
2023-07-24T23:44:11.965Z,100454.41
2023-07-24T23:46:41.504Z,100451.75
2023-07-24T23:49:08.574Z,100452.69
2023-07-24T23:51:35.646Z,100464.19
2023-07-24T23:54:02.642Z,100460.81
2023-07-24T23:56:29.659Z,100462.63
2023-07-24T23:58:56.643Z,100456.56
